createdAt,value
2023-05-19T00:00:02.371Z,15.59
2023-05-19T00:01:02.030Z,15.60
2023-05-19T00:02:02.189Z,15.60
2023-05-19T00:03:02.111Z,15.67
2023-05-19T00:04:01.910Z,15.63
2023-05-19T00:05:01.996Z,15.66
2023-05-19T00:06:01.916Z,15.63
2023-05-19T00:07:01.938Z,15.76
2023-05-19T00:08:01.832Z,15.69
2023-05-19T00:09:01.834Z,15.60
2023-05-19T00:10:01.700Z,15.57
2023-05-19T00:11:02.045Z,15.60
2023-05-19T00:12:01.558Z,15.63
2023-05-19T00:13:01.558Z,15.59
2023-05-19T00:14:01.466Z,15.57
2023-05-19T00:15:01.444Z,15.62
2023-05-19T00:16:01.489Z,15.63
2023-05-19T00:17:01.377Z,15.55
2023-05-19T00:18:01.309Z,15.57
2023-05-19T00:19:01.446Z,15.54
2023-05-19T00:20:01.467Z,15.50
2023-05-19T00:21:01.182Z,15.51
2023-05-19T00:22:01.138Z,15.55
2023-05-19T00:23:01.212Z,15.54
2023-05-19T00:24:01.036Z,15.39
2023-05-19T00:25:01.015Z,15.37
2023-05-19T00:26:00.973Z,15.50
2023-05-19T00:27:01.092Z,15.43
2023-05-19T00:28:00.856Z,15.39
2023-05-19T00:29:00.849Z,15.37
2023-05-19T00:30:00.768Z,15.37
2023-05-19T00:31:00.854Z,15.47
2023-05-19T00:32:00.738Z,15.39
2023-05-19T00:33:00.749Z,15.36
2023-05-19T00:34:00.616Z,15.33
2023-05-19T00:35:00.692Z,15.22
2023-05-19T00:36:00.515Z,15.18
2023-05-19T00:37:00.906Z,15.22
2023-05-19T00:38:00.424Z,15.25
2023-05-19T00:39:00.376Z,15.19
2023-05-19T00:40:00.534Z,15.15
2023-05-19T00:41:00.290Z,15.17
2023-05-19T00:42:00.327Z,15.23
2023-05-19T00:43:00.238Z,15.11
2023-05-19T00:44:00.348Z,15.10
2023-05-19T00:45:00.183Z,15.07
2023-05-19T00:46:00.154Z,15.05
2023-05-19T00:47:00.188Z,15.04
2023-05-19T00:48:00.228Z,15.04
2023-05-19T00:49:00.049Z,15.05
2023-05-19T00:49:59.979Z,15.02
2023-05-19T00:50:59.855Z,15.05
2023-05-19T00:51:59.989Z,14.96
2023-05-19T00:52:59.777Z,15.05
2023-05-19T00:53:59.797Z,14.94
2023-05-19T00:54:59.692Z,15.11
2023-05-19T00:55:59.865Z,15.11
2023-05-19T00:56:59.591Z,14.90
2023-05-19T00:57:59.647Z,15.04
2023-05-19T00:58:59.499Z,14.94
2023-05-19T00:59:59.654Z,14.86
2023-05-19T01:00:59.436Z,14.93
2023-05-19T01:01:59.421Z,14.89
2023-05-19T01:02:59.451Z,14.90
2023-05-19T01:03:59.629Z,14.86
2023-05-19T01:04:59.337Z,14.90
2023-05-19T01:05:59.281Z,14.99
2023-05-19T01:06:59.154Z,14.90
2023-05-19T01:07:59.347Z,14.87
2023-05-19T01:08:59.073Z,14.89
2023-05-19T01:09:59.101Z,14.85
2023-05-19T01:10:59.014Z,14.77
2023-05-19T01:11:59.111Z,14.82
2023-05-19T01:12:58.889Z,14.85
2023-05-19T01:13:58.847Z,14.81
2023-05-19T01:14:59.150Z,14.81
2023-05-19T01:15:58.851Z,14.85
2023-05-19T01:16:59.003Z,14.85
2023-05-19T01:17:58.812Z,14.81
2023-05-19T01:18:58.781Z,14.74
2023-05-19T01:19:58.585Z,14.78
2023-05-19T01:20:58.561Z,14.77
2023-05-19T01:21:58.786Z,14.79
2023-05-19T01:22:58.450Z,14.77
2023-05-19T01:23:58.592Z,14.77
2023-05-19T01:24:58.363Z,14.67
2023-05-19T01:25:58.396Z,14.74
2023-05-19T01:26:58.453Z,14.78
2023-05-19T01:27:58.422Z,14.74
2023-05-19T01:28:58.191Z,14.71
2023-05-19T01:29:58.228Z,14.70
2023-05-19T01:30:58.225Z,14.71
2023-05-19T01:31:58.122Z,14.63
2023-05-19T01:32:58.301Z,14.73
2023-05-19T01:33:57.976Z,14.61
2023-05-19T01:34:58.070Z,14.73
2023-05-19T01:35:57.881Z,14.71
2023-05-19T01:36:57.853Z,14.73
2023-05-19T01:37:57.874Z,14.68
2023-05-19T01:38:57.793Z,14.63
2023-05-19T01:39:57.890Z,14.62
2023-05-19T01:40:57.663Z,14.67
2023-05-19T01:41:57.699Z,14.71
2023-05-19T01:42:57.831Z,14.59
2023-05-19T01:43:57.724Z,14.62
2023-05-19T01:44:57.578Z,14.55
2023-05-19T01:45:57.569Z,14.49
2023-05-19T01:46:57.401Z,14.55
2023-05-19T01:47:57.627Z,14.51
2023-05-19T01:48:57.326Z,14.48
2023-05-19T01:49:57.554Z,14.44
2023-05-19T01:50:57.267Z,14.43
2023-05-19T01:51:57.376Z,14.36
2023-05-19T01:52:57.140Z,14.43
2023-05-19T01:53:57.170Z,14.37
2023-05-19T01:54:57.102Z,14.34
2023-05-19T01:55:57.206Z,14.31
2023-05-19T01:56:56.965Z,14.36
2023-05-19T01:57:57.000Z,14.34
2023-05-19T01:58:56.904Z,14.23
2023-05-19T01:59:56.862Z,14.26
2023-05-19T02:00:56.823Z,14.23
2023-05-19T02:01:57.030Z,14.22
2023-05-19T02:02:56.758Z,14.07
2023-05-19T02:03:56.868Z,14.05
2023-05-19T02:04:56.625Z,14.08
2023-05-19T02:05:56.576Z,14.08
2023-05-19T02:06:56.525Z,14.16
2023-05-19T02:07:56.668Z,14.11
2023-05-19T02:08:56.452Z,14.03
2023-05-19T02:09:56.473Z,14.00
2023-05-19T02:10:56.547Z,14.03
2023-05-19T02:11:56.310Z,14.05
2023-05-19T02:12:56.254Z,13.91
2023-05-19T02:13:56.293Z,13.87
2023-05-19T02:14:56.167Z,14.03
2023-05-19T02:15:57.364Z,13.89
2023-05-19T02:16:56.107Z,13.91
2023-05-19T02:17:56.077Z,13.95
2023-05-19T02:18:56.148Z,13.97
2023-05-19T02:19:55.950Z,13.86
2023-05-19T02:20:56.142Z,13.91
2023-05-19T02:21:55.857Z,13.87
2023-05-19T02:22:56.365Z,13.87
2023-05-19T02:23:55.947Z,13.83
2023-05-19T02:24:55.966Z,13.85
2023-05-19T02:25:55.690Z,13.85
2023-05-19T02:26:55.792Z,13.97
2023-05-19T02:27:55.611Z,13.80
2023-05-19T02:28:55.568Z,13.91
2023-05-19T02:29:55.717Z,13.82
2023-05-19T02:30:55.456Z,13.86
2023-05-19T02:31:55.764Z,13.80
2023-05-19T02:32:55.407Z,13.83
2023-05-19T02:33:55.522Z,13.83
2023-05-19T02:34:55.537Z,13.82
2023-05-19T02:35:55.239Z,13.83
2023-05-19T02:36:55.337Z,13.87
2023-05-19T02:37:55.170Z,13.82
2023-05-19T02:38:55.350Z,13.83
2023-05-19T02:39:55.066Z,13.85
2023-05-19T02:40:55.018Z,13.82
2023-05-19T02:41:55.015Z,13.89
2023-05-19T02:42:55.172Z,13.85
2023-05-19T02:43:55.037Z,13.85
2023-05-19T02:44:55.016Z,13.85
2023-05-19T02:45:54.861Z,13.82
2023-05-19T02:46:54.873Z,13.87
2023-05-19T02:47:54.748Z,13.86
2023-05-19T02:48:54.815Z,13.89
2023-05-19T02:49:54.642Z,13.89
2023-05-19T02:50:54.823Z,13.87
2023-05-19T02:51:54.642Z,13.80
2023-05-19T02:52:54.684Z,13.87
2023-05-19T02:53:54.660Z,13.79
2023-05-19T02:54:54.398Z,13.93
2023-05-19T02:55:54.459Z,13.89
2023-05-19T02:56:54.308Z,13.85
2023-05-19T02:57:54.469Z,13.94
2023-05-19T02:58:54.414Z,13.93
2023-05-19T02:59:54.283Z,13.91
2023-05-19T03:00:54.133Z,13.85
2023-05-19T03:01:54.327Z,13.93
2023-05-19T03:02:54.093Z,13.94
2023-05-19T03:03:54.092Z,13.87
2023-05-19T03:04:54.170Z,13.89
2023-05-19T03:05:54.117Z,13.97
2023-05-19T03:06:53.886Z,13.95
2023-05-19T03:07:53.929Z,13.89
2023-05-19T03:08:53.802Z,13.82
2023-05-19T03:09:53.762Z,13.86
2023-05-19T03:10:53.706Z,13.82
2023-05-19T03:11:53.798Z,13.89
2023-05-19T03:12:53.602Z,13.89
2023-05-19T03:13:53.972Z,13.80
2023-05-19T03:14:53.532Z,13.82
2023-05-19T03:15:53.530Z,13.78
2023-05-19T03:16:53.766Z,13.73
2023-05-19T03:17:53.433Z,13.76
2023-05-19T03:18:53.641Z,13.76
2023-05-19T03:19:53.330Z,13.78
2023-05-19T03:20:53.412Z,13.73
2023-05-19T03:21:53.205Z,13.75
2023-05-19T03:22:53.430Z,13.76
2023-05-19T03:23:53.118Z,13.76
2023-05-19T03:24:53.235Z,13.78
2023-05-19T03:25:53.290Z,13.76
2023-05-19T03:26:53.252Z,13.73
2023-05-19T03:27:52.949Z,13.76
2023-05-19T03:28:54.088Z,13.76
2023-05-19T03:29:52.858Z,13.80
2023-05-19T03:30:53.077Z,13.71
2023-05-19T03:31:52.792Z,13.82
2023-05-19T03:32:52.795Z,13.85
2023-05-19T03:33:52.675Z,13.89
2023-05-19T03:34:52.907Z,13.85
2023-05-19T03:35:52.583Z,13.94
2023-05-19T03:36:52.706Z,13.76
2023-05-19T03:37:52.764Z,13.80
2023-05-19T03:38:52.526Z,13.73
2023-05-19T03:39:52.416Z,13.79
2023-05-19T03:40:52.742Z,13.75
2023-05-19T03:41:52.321Z,13.76
2023-05-19T03:42:53.371Z,13.73
2023-05-19T03:43:52.234Z,13.68
2023-05-19T03:44:52.189Z,13.70
2023-05-19T03:45:52.153Z,13.65
2023-05-19T03:46:52.380Z,13.70
2023-05-19T03:47:52.102Z,13.64
2023-05-19T03:48:52.200Z,13.61
2023-05-19T03:49:52.239Z,13.61
2023-05-19T03:50:51.923Z,13.60
2023-05-19T03:51:51.879Z,13.62
2023-05-19T03:52:52.020Z,13.52
2023-05-19T03:53:51.811Z,13.47
2023-05-19T03:54:51.829Z,13.55
2023-05-19T03:55:51.706Z,13.47
2023-05-19T03:56:51.662Z,13.45
2023-05-19T03:57:51.740Z,13.37
2023-05-19T03:58:51.589Z,13.33
2023-05-19T03:59:51.752Z,13.42
2023-05-19T04:00:51.499Z,13.27
2023-05-19T04:01:51.643Z,13.31
2023-05-19T04:02:51.737Z,13.36
2023-05-19T04:03:51.582Z,13.31
2023-05-19T04:04:51.443Z,13.39
2023-05-19T04:05:51.390Z,13.30
2023-05-19T04:06:51.220Z,13.21
2023-05-19T04:07:51.165Z,13.20
2023-05-19T04:08:51.165Z,13.23
2023-05-19T04:09:51.217Z,13.21
2023-05-19T04:10:51.050Z,13.26
2023-05-19T04:11:51.437Z,13.30
2023-05-19T04:12:50.948Z,13.21
2023-05-19T04:13:50.897Z,13.17
2023-05-19T04:14:51.062Z,13.21
2023-05-19T04:15:50.838Z,13.23
2023-05-19T04:16:50.881Z,13.11
2023-05-19T04:17:50.765Z,13.16
2023-05-19T04:18:50.961Z,13.23
2023-05-19T04:19:51.101Z,13.20
2023-05-19T04:20:50.587Z,13.16
2023-05-19T04:21:50.704Z,13.11
2023-05-19T04:22:50.496Z,13.16
2023-05-19T04:23:50.716Z,13.06
2023-05-19T04:24:50.412Z,13.06
2023-05-19T04:25:50.404Z,13.06
2023-05-19T04:26:50.366Z,13.08
2023-05-19T04:27:50.530Z,13.02
2023-05-19T04:28:50.273Z,13.05
2023-05-19T04:29:50.333Z,13.08
2023-05-19T04:30:50.155Z,13.09
2023-05-19T04:31:50.198Z,13.08
2023-05-19T04:32:50.102Z,13.19
2023-05-19T04:33:50.160Z,13.24
2023-05-19T04:34:49.962Z,13.12
2023-05-19T04:35:50.174Z,13.21
2023-05-19T04:36:52.415Z,13.20
2023-05-19T04:37:49.850Z,13.36
2023-05-19T04:38:49.782Z,13.28
2023-05-19T04:39:50.004Z,13.33
2023-05-19T04:40:49.697Z,13.45
2023-05-19T04:41:49.807Z,13.47
2023-05-19T04:42:49.876Z,13.46
2023-05-19T04:43:49.826Z,13.45
2023-05-19T04:44:49.515Z,13.50
2023-05-19T04:45:49.639Z,13.49
2023-05-19T04:46:49.474Z,13.49
2023-05-19T04:47:49.704Z,13.47
2023-05-19T04:48:49.358Z,13.55
2023-05-19T04:49:49.472Z,13.58
2023-05-19T04:50:49.258Z,13.67
2023-05-19T04:51:49.490Z,13.67
2023-05-19T04:52:49.157Z,13.68
2023-05-19T04:53:49.405Z,13.68
2023-05-19T04:54:49.361Z,13.75
2023-05-19T04:55:49.027Z,13.71
2023-05-19T04:56:48.995Z,13.87
2023-05-19T04:57:49.109Z,13.85
2023-05-19T04:58:48.992Z,13.87
2023-05-19T04:59:49.125Z,13.93
2023-05-19T05:00:48.809Z,13.87
2023-05-19T05:01:48.797Z,13.80
2023-05-19T05:02:48.772Z,13.87
2023-05-19T05:03:48.991Z,14.01
2023-05-19T05:04:49.013Z,14.05
2023-05-19T05:05:48.759Z,14.04
2023-05-19T05:06:48.547Z,14.11
2023-05-19T05:07:48.502Z,14.15
2023-05-19T05:08:48.449Z,14.22
2023-05-19T05:09:48.583Z,14.23
2023-05-19T05:10:48.421Z,14.28
2023-05-19T05:11:48.597Z,14.37
2023-05-19T05:12:48.270Z,14.41
2023-05-19T05:13:48.649Z,14.36
2023-05-19T05:14:48.186Z,14.37
2023-05-19T05:15:48.424Z,14.53
2023-05-19T05:16:48.122Z,14.63
2023-05-19T05:17:48.259Z,14.66
2023-05-19T05:18:48.070Z,14.61
2023-05-19T05:19:48.263Z,14.59
2023-05-19T05:20:47.920Z,14.62
2023-05-19T05:21:48.072Z,14.71
2023-05-19T05:22:47.836Z,14.74
2023-05-19T05:23:48.066Z,14.74
2023-05-19T05:24:47.746Z,14.82
2023-05-19T05:25:47.722Z,14.77
2023-05-19T05:26:47.662Z,14.79
2023-05-19T05:27:47.892Z,14.87
2023-05-19T05:28:47.590Z,14.86
2023-05-19T05:29:47.701Z,14.87
2023-05-19T05:30:47.766Z,14.93
2023-05-19T05:31:47.712Z,14.93
2023-05-19T05:32:47.628Z,14.97
2023-05-19T05:33:47.394Z,15.02
2023-05-19T05:34:47.533Z,15.10
2023-05-19T05:35:47.273Z,14.96
2023-05-19T05:36:48.005Z,14.93
2023-05-19T05:37:48.376Z,14.99
2023-05-19T05:38:47.131Z,15.12
2023-05-19T05:39:47.390Z,15.04
2023-05-19T05:40:47.042Z,15.15
2023-05-19T05:41:47.173Z,15.15
2023-05-19T05:42:47.240Z,15.18
2023-05-19T05:43:47.200Z,15.25
2023-05-19T05:44:47.001Z,15.27
2023-05-19T05:45:46.839Z,15.35
2023-05-19T05:46:47.012Z,15.41
2023-05-19T05:47:46.770Z,15.43
2023-05-19T05:48:46.820Z,15.41
2023-05-19T05:49:46.844Z,15.39
2023-05-19T05:50:46.623Z,15.50
2023-05-19T05:51:54.626Z,15.55
2023-05-19T05:52:46.526Z,15.70
2023-05-19T05:53:46.651Z,15.72
2023-05-19T05:54:46.439Z,15.76
2023-05-19T05:55:46.668Z,15.78
2023-05-19T05:56:46.471Z,15.85
2023-05-19T05:57:46.301Z,15.65
2023-05-19T05:58:46.486Z,15.76
2023-05-19T05:59:46.217Z,15.72
2023-05-19T06:03:47.467Z,15.44
2023-05-19T06:04:47.569Z,15.41
2023-05-19T06:05:47.403Z,15.36
2023-05-19T06:06:47.328Z,15.59
2023-05-19T06:07:47.378Z,15.47
2023-05-19T06:08:47.205Z,15.50
2023-05-19T06:09:47.152Z,15.55
2023-05-19T06:10:47.569Z,15.63
2023-05-19T06:11:47.053Z,15.78
2023-05-19T06:12:47.412Z,15.73
2023-05-19T06:13:46.982Z,15.87
2023-05-19T06:14:47.222Z,15.87
2023-05-19T06:15:46.892Z,16.00
2023-05-19T06:16:47.031Z,16.02
2023-05-19T06:17:46.844Z,16.00
2023-05-19T06:18:47.082Z,16.13
2023-05-19T06:19:46.847Z,16.12
2023-05-19T06:20:46.669Z,16.09
2023-05-19T06:21:46.623Z,16.24
2023-05-19T06:22:49.121Z,16.09
2023-05-19T06:23:46.540Z,16.16
2023-05-19T06:24:46.696Z,16.12
2023-05-19T06:25:46.454Z,16.05
2023-05-19T06:26:46.704Z,15.88
2023-05-19T06:27:46.499Z,15.91
2023-05-19T06:28:46.347Z,15.99
2023-05-19T06:29:46.524Z,15.85
2023-05-19T06:30:46.225Z,15.69
2023-05-19T06:31:46.433Z,15.65
2023-05-19T06:32:46.189Z,15.57
2023-05-19T06:33:46.137Z,15.73
2023-05-19T06:34:46.060Z,15.81
2023-05-19T06:35:46.149Z,15.84
2023-05-19T06:36:45.973Z,15.96
2023-05-19T06:37:46.165Z,15.92
2023-05-19T06:38:45.887Z,15.83
2023-05-19T06:39:47.055Z,15.84
2023-05-19T06:40:45.983Z,15.81
2023-05-19T06:41:45.756Z,16.03
2023-05-19T06:42:46.029Z,15.98
2023-05-19T06:43:45.674Z,16.00
2023-05-19T06:44:45.805Z,15.94
2023-05-19T06:45:45.734Z,15.88
2023-05-19T06:46:45.844Z,15.80
2023-05-19T06:47:45.512Z,15.81
2023-05-19T06:48:45.638Z,15.92
2023-05-19T06:49:45.410Z,15.96
2023-05-19T06:50:46.666Z,16.08
2023-05-19T06:51:45.376Z,16.12
2023-05-19T06:52:45.459Z,16.10
2023-05-19T06:53:45.237Z,16.13
2023-05-19T06:54:46.696Z,16.21
2023-05-19T06:55:58.120Z,16.13
2023-05-19T06:56:45.132Z,16.22
2023-05-19T06:57:45.068Z,16.24
2023-05-19T06:58:45.031Z,16.36
2023-05-19T06:59:46.121Z,16.39
2023-05-19T07:00:44.958Z,16.36
2023-05-19T07:01:45.156Z,16.21
2023-05-19T07:02:44.907Z,16.34
2023-05-19T07:03:45.318Z,16.44
2023-05-19T07:04:44.764Z,16.40
2023-05-19T07:05:44.940Z,16.41
2023-05-19T07:06:44.720Z,16.46
2023-05-19T07:07:44.950Z,16.72
2023-05-19T07:08:44.606Z,16.80
2023-05-19T07:09:44.591Z,16.80
2023-05-19T07:10:44.773Z,16.76
2023-05-19T07:11:44.469Z,16.79
2023-05-19T07:12:44.581Z,16.92
2023-05-19T07:13:44.388Z,16.82
2023-05-19T07:14:44.585Z,16.79
2023-05-19T07:15:44.350Z,16.92
2023-05-19T07:16:45.486Z,16.98
2023-05-19T07:17:44.512Z,17.05
2023-05-19T07:18:44.401Z,17.09
2023-05-19T07:19:44.137Z,17.01
2023-05-19T07:20:44.327Z,16.95
2023-05-19T07:21:45.436Z,16.98
2023-05-19T07:22:44.137Z,16.97
2023-05-19T07:23:43.956Z,17.04
2023-05-19T07:24:44.150Z,17.13
2023-05-19T07:25:43.885Z,17.27
2023-05-19T07:26:45.191Z,17.04
2023-05-19T07:27:44.991Z,16.98
2023-05-19T07:28:44.050Z,16.95
2023-05-19T07:29:45.013Z,16.91
2023-05-19T07:30:43.658Z,16.79
2023-05-19T07:31:44.075Z,16.74
2023-05-19T07:32:44.918Z,16.79
2023-05-19T07:33:43.569Z,16.68
2023-05-19T07:34:43.715Z,16.64
2023-05-19T07:35:43.462Z,16.66
2023-05-19T07:36:43.531Z,16.74
2023-05-19T07:37:43.377Z,16.77
2023-05-19T07:38:44.448Z,16.72
2023-05-19T07:39:43.492Z,16.72
2023-05-19T07:40:43.352Z,16.72
2023-05-19T07:41:43.192Z,16.65
2023-05-19T07:42:43.358Z,16.58
2023-05-19T07:43:43.139Z,16.61
2023-05-19T07:44:43.167Z,16.44
2023-05-19T07:45:43.038Z,16.58
2023-05-19T07:46:43.208Z,16.46
2023-05-19T07:47:42.955Z,16.49
2023-05-19T07:48:43.198Z,16.43
2023-05-19T07:49:42.848Z,16.41
2023-05-19T07:50:43.032Z,16.37
2023-05-19T07:51:42.765Z,16.40
2023-05-19T07:52:42.840Z,16.50
2023-05-19T07:53:42.673Z,16.47
2023-05-19T07:54:42.836Z,16.59
2023-05-19T07:55:42.589Z,16.61
2023-05-19T07:56:42.648Z,16.61
2023-05-19T07:57:42.775Z,16.55
2023-05-19T07:58:43.472Z,16.58
2023-05-19T07:59:42.425Z,16.57
2023-05-19T08:00:42.471Z,16.61
2023-05-19T08:01:42.328Z,16.54
2023-05-19T08:02:42.535Z,16.47
2023-05-19T08:03:42.286Z,16.64
2023-05-19T08:04:42.314Z,16.72
2023-05-19T08:05:42.154Z,16.79
2023-05-19T08:06:42.308Z,16.91
2023-05-19T08:07:42.076Z,16.98
2023-05-19T08:08:42.131Z,17.16
2023-05-19T08:09:42.174Z,17.30
2023-05-19T08:10:42.140Z,17.41
2023-05-19T08:11:41.908Z,17.57
2023-05-19T08:12:41.957Z,17.71
2023-05-19T08:13:41.828Z,17.94
2023-05-19T08:14:44.012Z,18.06
2023-05-19T08:15:41.757Z,18.27
2023-05-19T08:16:41.773Z,18.39
2023-05-19T08:17:41.697Z,18.43
2023-05-19T08:18:41.822Z,18.61
2023-05-19T08:19:42.672Z,18.68
2023-05-19T08:20:41.592Z,18.76
2023-05-19T08:21:41.600Z,18.88
2023-05-19T08:22:41.450Z,18.82
2023-05-19T08:23:42.437Z,19.04
2023-05-19T08:24:41.365Z,19.08
2023-05-19T08:25:41.632Z,19.19
2023-05-19T08:26:41.295Z,19.42
2023-05-19T08:27:41.246Z,19.60
2023-05-19T08:28:42.271Z,19.72
2023-05-19T08:29:41.207Z,19.89
2023-05-19T08:30:41.262Z,19.93
2023-05-19T08:31:41.376Z,19.92
2023-05-19T08:32:41.302Z,20.00
2023-05-19T08:33:41.028Z,20.08
2023-05-19T08:34:42.108Z,20.08
2023-05-19T08:35:40.917Z,20.24
2023-05-19T08:36:41.099Z,20.15
2023-05-19T08:37:40.967Z,20.14
2023-05-19T08:38:40.911Z,20.32
2023-05-19T08:39:40.757Z,20.24
2023-05-19T08:40:40.825Z,20.36
2023-05-19T08:41:40.672Z,20.27
2023-05-19T08:42:40.835Z,20.30
2023-05-19T08:43:40.601Z,20.22
2023-05-19T08:44:40.651Z,20.32
2023-05-19T08:45:40.528Z,20.34
2023-05-19T08:46:41.723Z,20.39
2023-05-19T08:47:40.478Z,20.48
2023-05-19T08:48:41.697Z,20.46
2023-05-19T08:49:40.373Z,20.49
2023-05-19T08:50:40.488Z,20.49
2023-05-19T08:51:40.492Z,20.56
2023-05-19T08:52:40.242Z,20.58
2023-05-19T08:53:40.300Z,20.63
2023-05-19T08:54:40.152Z,20.56
2023-05-19T08:55:40.314Z,20.68
2023-05-19T08:56:40.115Z,20.82
2023-05-19T08:57:40.033Z,20.85
2023-05-19T08:58:39.994Z,20.86
2023-05-19T08:59:41.166Z,20.73
2023-05-19T09:00:39.936Z,20.58
2023-05-19T09:01:40.164Z,20.52
2023-05-19T09:02:50.354Z,20.34
2023-05-19T09:03:39.974Z,20.44
2023-05-19T09:04:40.185Z,20.58
2023-05-19T09:05:39.728Z,20.64
2023-05-19T09:06:39.796Z,20.86
2023-05-19T09:07:39.635Z,20.90
2023-05-19T09:08:39.698Z,21.01
2023-05-19T09:09:39.585Z,21.04
2023-05-19T09:10:39.715Z,21.05
2023-05-19T09:11:39.479Z,21.03
2023-05-19T09:12:40.544Z,21.01
2023-05-19T09:13:39.419Z,21.04
2023-05-19T09:14:39.532Z,21.01
2023-05-19T09:15:39.382Z,21.13
2023-05-19T09:16:39.309Z,21.01
2023-05-19T09:17:39.377Z,20.98
2023-05-19T09:18:39.228Z,21.05
2023-05-19T09:19:40.398Z,21.03
2023-05-19T09:20:39.116Z,20.90
2023-05-19T09:21:39.391Z,20.80
2023-05-19T09:22:39.038Z,20.77
2023-05-19T09:23:40.214Z,20.89
2023-05-19T09:24:38.988Z,20.89
2023-05-19T09:25:40.025Z,20.80
2023-05-19T09:26:38.882Z,20.67
2023-05-19T09:27:39.011Z,20.55
2023-05-19T09:28:39.073Z,20.46
2023-05-19T09:29:38.828Z,20.49
2023-05-19T09:30:38.721Z,20.52
2023-05-19T09:31:38.862Z,20.44
2023-05-19T09:32:38.654Z,20.63
2023-05-19T09:33:39.734Z,20.70
2023-05-19T09:34:39.679Z,20.82
2023-05-19T09:35:38.530Z,20.98
2023-05-19T09:36:38.677Z,21.08
2023-05-19T09:37:38.439Z,21.25
2023-05-19T09:38:38.482Z,21.22
2023-05-19T09:39:38.365Z,20.95
2023-05-19T09:40:38.354Z,21.04
2023-05-19T09:41:38.507Z,21.05
2023-05-19T09:42:38.246Z,20.95
2023-05-19T09:43:38.328Z,21.00
2023-05-19T09:44:38.167Z,20.98
2023-05-19T09:45:41.013Z,20.83
2023-05-19T09:46:39.200Z,20.75
2023-05-19T09:47:38.119Z,20.80
2023-05-19T09:48:39.175Z,20.83
2023-05-19T09:49:37.962Z,20.64
2023-05-19T09:50:38.189Z,20.58
2023-05-19T09:51:37.908Z,20.56
2023-05-19T09:52:38.036Z,20.56
2023-05-19T09:53:37.979Z,20.59
2023-05-19T09:54:37.762Z,20.33
2023-05-19T09:55:38.810Z,20.30
2023-05-19T09:56:37.680Z,20.32
2023-05-19T09:57:37.803Z,20.27
2023-05-19T09:58:37.712Z,20.18
2023-05-19T09:59:37.572Z,20.27
2023-05-19T10:00:37.625Z,20.22
2023-05-19T10:01:38.922Z,20.22
2023-05-19T10:02:37.461Z,20.33
2023-05-19T10:03:37.648Z,20.26
2023-05-19T10:04:37.372Z,20.21
2023-05-19T10:05:38.473Z,20.17
2023-05-19T10:06:38.490Z,20.03
2023-05-19T10:07:37.249Z,20.22
2023-05-19T10:08:38.288Z,20.37
2023-05-19T10:09:37.163Z,20.44
2023-05-19T10:10:37.283Z,20.44
2023-05-19T10:11:37.337Z,20.53
2023-05-19T10:12:37.301Z,20.48
2023-05-19T10:13:37.010Z,20.39
2023-05-19T10:14:38.136Z,20.39
2023-05-19T10:15:46.712Z,20.33
2023-05-19T10:16:36.933Z,20.24
2023-05-19T10:17:37.002Z,20.26
2023-05-19T10:18:39.774Z,20.36
2023-05-19T10:19:36.785Z,20.50
2023-05-19T10:20:37.010Z,20.56
2023-05-19T10:21:36.770Z,20.55
2023-05-19T10:22:36.764Z,20.68
2023-05-19T10:23:36.772Z,20.56
2023-05-19T10:24:36.572Z,20.73
2023-05-19T10:25:36.799Z,20.88
2023-05-19T10:26:36.484Z,21.08
2023-05-19T10:27:36.590Z,21.17
2023-05-19T10:28:36.405Z,21.25
2023-05-19T10:29:37.688Z,21.25
2023-05-19T10:30:37.434Z,21.20
2023-05-19T10:31:36.342Z,21.32
2023-05-19T10:32:37.465Z,21.51
2023-05-19T10:33:36.218Z,21.72
2023-05-19T10:34:36.230Z,21.84
2023-05-19T10:35:36.315Z,21.97
2023-05-19T10:36:36.247Z,22.01
2023-05-19T10:37:36.058Z,22.01
2023-05-19T10:38:36.265Z,22.19
2023-05-19T10:39:35.972Z,22.23
2023-05-19T10:40:37.304Z,22.36
2023-05-19T10:41:35.905Z,22.41
2023-05-19T10:42:36.088Z,22.44
2023-05-19T10:43:35.893Z,22.43
2023-05-19T10:44:36.924Z,22.01
2023-05-19T10:45:35.927Z,21.94
2023-05-19T10:46:35.947Z,22.01
2023-05-19T10:47:35.694Z,22.03
2023-05-19T10:48:35.927Z,22.14
2023-05-19T10:49:35.601Z,22.36
2023-05-19T10:50:36.773Z,22.40
2023-05-19T10:51:56.640Z,22.38
2023-05-19T10:52:35.474Z,22.40
2023-05-19T10:53:35.434Z,22.44
2023-05-19T10:54:35.561Z,22.46
2023-05-19T10:55:35.421Z,22.47
2023-05-19T10:56:36.457Z,22.46
2023-05-19T10:57:35.309Z,22.41
2023-05-19T10:58:35.395Z,22.61
2023-05-19T10:59:35.238Z,22.78
2023-05-19T11:00:36.445Z,22.93
2023-05-19T11:01:35.213Z,23.13
2023-05-19T11:02:35.471Z,23.25
2023-05-19T11:03:35.050Z,23.25
2023-05-19T11:04:35.252Z,23.54
2023-05-19T11:05:35.331Z,23.70
2023-05-19T11:06:35.137Z,23.85
2023-05-19T11:07:34.898Z,23.82
2023-05-19T11:08:35.154Z,23.70
2023-05-19T11:09:40.368Z,23.64
2023-05-19T11:10:34.974Z,23.69
2023-05-19T11:11:36.026Z,23.91
2023-05-19T11:12:34.701Z,23.96
2023-05-19T11:13:36.713Z,24.19
2023-05-19T11:14:34.639Z,24.28
2023-05-19T11:15:35.038Z,24.66
2023-05-19T11:16:34.567Z,25.04
2023-05-19T11:17:35.123Z,25.37
2023-05-19T11:18:34.619Z,25.67
2023-05-19T11:19:34.490Z,25.58
2023-05-19T11:20:35.699Z,25.56
2023-05-19T11:21:34.473Z,25.58
2023-05-19T11:22:35.666Z,25.43
2023-05-19T11:23:35.585Z,25.16
2023-05-19T11:24:34.452Z,24.97
2023-05-19T11:25:34.334Z,24.69
2023-05-19T11:26:34.267Z,24.63
2023-05-19T11:27:34.164Z,25.06
2023-05-19T11:28:34.479Z,25.39
2023-05-19T11:29:34.864Z,25.51
2023-05-19T11:30:34.037Z,25.49
2023-05-19T11:31:34.245Z,25.67
2023-05-19T11:32:34.102Z,26.07
2023-05-19T11:33:35.132Z,25.99
2023-05-19T11:34:33.909Z,26.07
2023-05-19T11:35:35.485Z,26.06
2023-05-19T11:36:33.827Z,26.03
2023-05-19T11:37:34.964Z,26.13
2023-05-19T11:38:36.042Z,26.15
2023-05-19T11:39:33.965Z,26.41
2023-05-19T11:40:33.688Z,26.45
2023-05-19T11:41:33.647Z,26.41
2023-05-19T11:42:33.767Z,26.37
2023-05-19T11:43:33.581Z,26.31
2023-05-19T11:44:34.861Z,26.10
2023-05-19T11:45:33.874Z,26.08
2023-05-19T11:46:33.650Z,26.08
2023-05-19T11:47:42.516Z,26.26
2023-05-19T11:48:33.496Z,26.66
2023-05-19T11:49:33.616Z,26.74
2023-05-19T11:50:33.373Z,26.96
2023-05-19T11:51:33.427Z,26.92
2023-05-19T11:52:33.257Z,26.81
2023-05-19T11:53:34.681Z,26.81
2023-05-19T11:54:33.183Z,26.93
2023-05-19T11:55:33.454Z,26.83
2023-05-19T11:56:33.122Z,26.81
2023-05-19T11:57:33.260Z,26.70
2023-05-19T11:58:33.048Z,26.59
2023-05-19T11:59:34.960Z,26.27
2023-05-19T12:00:33.004Z,25.98
2023-05-19T12:01:33.097Z,25.86
2023-05-19T12:02:32.949Z,25.70
2023-05-19T12:03:33.256Z,25.68
2023-05-19T12:04:32.845Z,25.59
2023-05-19T12:05:35.444Z,25.58
2023-05-19T12:06:33.146Z,25.49
2023-05-19T12:07:34.984Z,25.58
2023-05-19T12:08:32.716Z,25.52
2023-05-19T12:09:32.740Z,25.40
2023-05-19T12:10:32.619Z,25.48
2023-05-19T12:11:32.772Z,25.33
2023-05-19T12:12:32.574Z,25.34
2023-05-19T12:13:32.980Z,25.33
2023-05-19T12:14:32.466Z,25.33
2023-05-19T12:15:32.749Z,25.43
2023-05-19T12:16:33.502Z,25.55
2023-05-19T12:17:53.564Z,25.67
2023-05-19T12:18:32.446Z,25.85
2023-05-19T12:19:32.454Z,25.71
2023-05-19T12:20:32.257Z,25.52
2023-05-19T12:21:34.147Z,25.55
2023-05-19T12:22:32.190Z,25.52
2023-05-19T12:23:32.224Z,25.61
2023-05-19T12:24:32.203Z,25.39
2023-05-19T12:25:33.677Z,25.14
2023-05-19T12:26:32.027Z,25.19
2023-05-19T12:27:34.739Z,25.66
2023-05-19T12:28:31.956Z,26.07
2023-05-19T12:29:32.077Z,26.42
2023-05-19T12:30:32.627Z,26.68
2023-05-19T12:31:32.092Z,27.03
2023-05-19T12:32:31.842Z,27.48
2023-05-19T12:33:33.427Z,28.04
2023-05-19T12:34:31.753Z,28.59
2023-05-19T12:35:31.917Z,29.07
2023-05-19T12:36:32.930Z,29.47
2023-05-19T12:37:31.655Z,29.42
2023-05-19T12:38:31.923Z,29.40
2023-05-19T12:39:31.585Z,29.31
2023-05-19T12:40:34.029Z,29.42
2023-05-19T12:41:31.506Z,29.53
2023-05-19T12:42:31.583Z,29.58
2023-05-19T12:43:31.447Z,29.24
2023-05-19T12:44:31.585Z,29.27
2023-05-19T12:45:31.384Z,29.03
2023-05-19T12:46:31.422Z,28.83
2023-05-19T12:47:32.469Z,28.70
2023-05-19T12:48:32.420Z,28.75
2023-05-19T12:49:31.240Z,28.92
2023-05-19T12:50:31.566Z,28.89
2023-05-19T12:51:31.183Z,29.21
2023-05-19T12:52:32.435Z,29.24
2023-05-19T12:53:31.101Z,29.50
2023-05-19T12:54:31.170Z,29.61